SRR477 EKBI-EDDK
Flight info
| Callsign | SRR477 |
|---|---|
| Flight time | 0h 57m |
| Altitude | 35000 |
| Route | ALS M852 EKERN/N0467F360 N125 ELSOB/N0467F350 N850 LARBU/N0468F360 Z189 RUNER T858 KOPAG |
| Aircraft | B77L/H-SDE1E2E3FGHIJ2J3J4J5M1RWXY/LB1D1 |
Departure
| Time | 2026-05-01 14:18 |
|---|---|
| Airport | Billund Airport (EKBI) |
Arrival
| Time | 2026-05-01 15:15 |
|---|---|
| Airport | Cologne Bonn Airport (EDDK) |
| Time | Latitude | Longitude | Altitude | Speed | Heading |
|---|---|---|---|---|---|
| 2026-05-01 13:43 | 55.73777 | 9.13839 | 229 ft | 0 kts | 179° |
| 2026-05-01 14:08 | 55.73787 | 9.13839 | 221 ft | 2 kts | 182° |
| 2026-05-01 14:08 | 55.73801 | 9.13841 | 222 ft | 2 kts | 188° |
| 2026-05-01 14:08 | 55.73817 | 9.13847 | 230 ft | 2 kts | 200° |
| 2026-05-01 14:08 | 55.73832 | 9.13860 | 228 ft | 2 kts | 227° |
| 2026-05-01 14:09 | 55.73841 | 9.13885 | 227 ft | 2 kts | 257° |
| 2026-05-01 14:09 | 55.73843 | 9.13907 | 225 ft | 1 kts | 266° |
| 2026-05-01 14:09 | 55.73843 | 9.13909 | 223 ft | 0 kts | 266° |
| 2026-05-01 14:12 | 55.73843 | 9.13894 | 226 ft | 0 kts | 266° |
| 2026-05-01 14:14 | 55.73842 | 9.13889 | 227 ft | 2 kts | 266° |
| 2026-05-01 14:14 | 55.73841 | 9.13859 | 226 ft | 3 kts | 266° |
| 2026-05-01 14:15 | 55.73840 | 9.13818 | 224 ft | 4 kts | 266° |
| 2026-05-01 14:15 | 55.73838 | 9.13766 | 220 ft | 5 kts | 266° |
| 2026-05-01 14:15 | 55.73836 | 9.13705 | 220 ft | 5 kts | 266° |
| 2026-05-01 14:15 | 55.73835 | 9.13637 | 220 ft | 6 kts | 276° |
| 2026-05-01 14:16 | 55.73869 | 9.13593 | 225 ft | 7 kts | 349° |
| 2026-05-01 14:16 | 55.73917 | 9.13593 | 227 ft | 7 kts | 5° |
| 2026-05-01 14:16 | 55.73966 | 9.13626 | 225 ft | 8 kts | 39° |
| 2026-05-01 14:16 | 55.73987 | 9.13720 | 220 ft | 9 kts | 83° |
| 2026-05-01 14:17 | 55.73988 | 9.13744 | 220 ft | 0 kts | 85° |
| 2026-05-01 14:17 | 55.73988 | 9.13750 | 220 ft | 5 kts | 84° |
| 2026-05-01 14:17 | 55.74003 | 9.14134 | 223 ft | 69 kts | 87° |
| 2026-05-01 14:18 | 55.74042 | 9.15480 | 221 ft | 147 kts | 87° |
| 2026-05-01 14:18 | 55.74098 | 9.17609 | 526 ft | 183 kts | 89° |
| 2026-05-01 14:18 | 55.74152 | 9.19866 | 1560 ft | 185 kts | 90° |
| 2026-05-01 14:18 | 55.74197 | 9.21358 | 2374 ft | 181 kts | 90° |
| 2026-05-01 14:19 | 55.74279 | 9.24523 | 3394 ft | 210 kts | 91° |
| 2026-05-01 14:19 | 55.74322 | 9.27251 | 3947 ft | 231 kts | 93° |
| 2026-05-01 14:19 | 55.73932 | 9.30111 | 4400 ft | 253 kts | 127° |
| 2026-05-01 14:19 | 55.72603 | 9.32144 | 5281 ft | 254 kts | 156° |
| 2026-05-01 14:20 | 55.71003 | 9.33440 | 6309 ft | 262 kts | 159° |
| 2026-05-01 14:20 | 55.67564 | 9.35925 | 8546 ft | 267 kts | 161° |
| 2026-05-01 14:20 | 55.65833 | 9.37196 | 9693 ft | 272 kts | 160° |
| 2026-05-01 14:21 | 55.64082 | 9.38534 | 10696 ft | 278 kts | 160° |
| 2026-05-01 14:21 | 55.62254 | 9.39967 | 11276 ft | 301 kts | 159° |
| 2026-05-01 14:21 | 55.60244 | 9.41573 | 11535 ft | 334 kts | 158° |
| 2026-05-01 14:22 | 55.55784 | 9.45242 | 13030 ft | 363 kts | 157° |
| 2026-05-01 14:22 | 55.53482 | 9.47165 | 14088 ft | 369 kts | 157° |
| 2026-05-01 14:22 | 55.51141 | 9.49128 | 15022 ft | 376 kts | 157° |
| 2026-05-01 14:22 | 55.48762 | 9.51127 | 15969 ft | 381 kts | 157° |
| 2026-05-01 14:23 | 55.46358 | 9.53147 | 16889 ft | 387 kts | 157° |
| 2026-05-01 14:23 | 55.43906 | 9.55203 | 17787 ft | 393 kts | 156° |
| 2026-05-01 14:23 | 55.41423 | 9.57283 | 18670 ft | 399 kts | 156° |
| 2026-05-01 14:23 | 55.38903 | 9.59391 | 19456 ft | 404 kts | 156° |
| 2026-05-01 14:24 | 55.36349 | 9.61525 | 20276 ft | 408 kts | 156° |
| 2026-05-01 14:24 | 55.33769 | 9.63678 | 21099 ft | 412 kts | 156° |
| 2026-05-01 14:24 | 55.31162 | 9.65848 | 21849 ft | 418 kts | 156° |
| 2026-05-01 14:24 | 55.28526 | 9.68040 | 22629 ft | 422 kts | 155° |
| 2026-05-01 14:25 | 55.25857 | 9.70256 | 23427 ft | 426 kts | 155° |
| 2026-05-01 14:25 | 55.23163 | 9.72489 | 24175 ft | 430 kts | 155° |
| 2026-05-01 14:25 | 55.20443 | 9.74740 | 24825 ft | 434 kts | 155° |
| 2026-05-01 14:25 | 55.17695 | 9.77011 | 25469 ft | 438 kts | 155° |
| 2026-05-01 14:26 | 55.14932 | 9.79291 | 26068 ft | 443 kts | 155° |
| 2026-05-01 14:26 | 55.09341 | 9.83892 | 27327 ft | 450 kts | 155° |
| 2026-05-01 14:26 | 55.06459 | 9.86259 | 27879 ft | 455 kts | 155° |
| 2026-05-01 14:27 | 55.03575 | 9.88624 | 28438 ft | 460 kts | 155° |
| 2026-05-01 14:27 | 55.00670 | 9.91003 | 29104 ft | 462 kts | 155° |
| 2026-05-01 14:27 | 54.97745 | 9.93395 | 29610 ft | 468 kts | 155° |
| 2026-05-01 14:28 | 54.91795 | 9.97941 | 30528 ft | 473 kts | 165° |
| 2026-05-01 14:28 | 54.88480 | 9.98721 | 30857 ft | 477 kts | 181° |
| 2026-05-01 14:28 | 54.85268 | 9.97874 | 31427 ft | 472 kts | 193° |
| 2026-05-01 14:28 | 54.82157 | 9.96655 | 31925 ft | 473 kts | 192° |
| 2026-05-01 14:29 | 54.78943 | 9.95526 | 32521 ft | 471 kts | 191° |
| 2026-05-01 14:29 | 54.75684 | 9.94458 | 33120 ft | 470 kts | 190° |
| 2026-05-01 14:30 | 54.66064 | 9.91354 | 34695 ft | 467 kts | 191° |
| 2026-05-01 14:30 | 54.62913 | 9.90332 | 35142 ft | 466 kts | 191° |
| 2026-05-01 14:30 | 54.59720 | 9.89308 | 35565 ft | 466 kts | 191° |
| 2026-05-01 14:31 | 54.53310 | 9.87265 | 36349 ft | 466 kts | 191° |
| 2026-05-01 14:31 | 54.46900 | 9.85215 | 36349 ft | 468 kts | 191° |
| 2026-05-01 14:32 | 54.40523 | 9.83068 | 36348 ft | 467 kts | 193° |
| 2026-05-01 14:32 | 54.34218 | 9.80355 | 36330 ft | 468 kts | 195° |
| 2026-05-01 14:33 | 54.27918 | 9.77511 | 36324 ft | 468 kts | 195° |
| 2026-05-01 14:33 | 54.21617 | 9.74719 | 36308 ft | 468 kts | 194° |
| 2026-05-01 14:34 | 54.15307 | 9.71978 | 36328 ft | 468 kts | 194° |
| 2026-05-01 14:34 | 54.09045 | 9.69282 | 36328 ft | 467 kts | 194° |
| 2026-05-01 14:35 | 54.02694 | 9.66558 | 36319 ft | 467 kts | 194° |
| 2026-05-01 14:35 | 53.96435 | 9.63878 | 36337 ft | 467 kts | 194° |
| 2026-05-01 14:36 | 53.90126 | 9.61184 | 36320 ft | 468 kts | 194° |
| 2026-05-01 14:36 | 53.83821 | 9.58500 | 36339 ft | 468 kts | 194° |
| 2026-05-01 14:37 | 53.77517 | 9.55825 | 36337 ft | 468 kts | 194° |
| 2026-05-01 14:37 | 53.71272 | 9.53184 | 36342 ft | 468 kts | 194° |
| 2026-05-01 14:38 | 53.64969 | 9.50526 | 36341 ft | 468 kts | 194° |
| 2026-05-01 14:38 | 53.58624 | 9.47859 | 36343 ft | 468 kts | 194° |
| 2026-05-01 14:39 | 53.52269 | 9.45196 | 36339 ft | 469 kts | 194° |
| 2026-05-01 14:39 | 53.45962 | 9.42560 | 36340 ft | 469 kts | 194° |
| 2026-05-01 14:40 | 53.39669 | 9.39940 | 36336 ft | 469 kts | 194° |
| 2026-05-01 14:40 | 53.33296 | 9.37293 | 36332 ft | 469 kts | 194° |
| 2026-05-01 14:41 | 53.27057 | 9.34710 | 36332 ft | 469 kts | 194° |
| 2026-05-01 14:41 | 53.20753 | 9.32108 | 36329 ft | 469 kts | 194° |
| 2026-05-01 14:42 | 53.14355 | 9.29475 | 36332 ft | 470 kts | 194° |
| 2026-05-01 14:42 | 53.08055 | 9.26890 | 36330 ft | 470 kts | 194° |
| 2026-05-01 14:43 | 53.01708 | 9.24295 | 36324 ft | 470 kts | 194° |
| 2026-05-01 14:43 | 52.95365 | 9.21709 | 36329 ft | 471 kts | 194° |
| 2026-05-01 14:44 | 52.88996 | 9.19120 | 36326 ft | 471 kts | 194° |
| 2026-05-01 14:44 | 52.79425 | 9.15243 | 36330 ft | 472 kts | 194° |
| 2026-05-01 14:45 | 52.69848 | 9.11383 | 36332 ft | 472 kts | 194° |
| 2026-05-01 14:46 | 52.63458 | 9.08817 | 36324 ft | 473 kts | 194° |
| 2026-05-01 14:46 | 52.53873 | 9.04981 | 36326 ft | 473 kts | 194° |
| 2026-05-01 14:47 | 52.48554 | 9.02860 | 36322 ft | 473 kts | 194° |
| 2026-05-01 14:48 | 52.38948 | 8.99042 | 36322 ft | 473 kts | 194° |
| 2026-05-01 14:48 | 52.29337 | 8.95240 | 36317 ft | 474 kts | 194° |
| 2026-05-01 14:49 | 52.16461 | 8.90180 | 36187 ft | 486 kts | 194° |
| 2026-05-01 14:50 | 52.03542 | 8.85120 | 34784 ft | 455 kts | 194° |
| 2026-05-01 14:51 | 52.00463 | 8.83919 | 34183 ft | 455 kts | 194° |
| 2026-05-01 14:51 | 51.94302 | 8.81522 | 32826 ft | 455 kts | 193° |
| 2026-05-01 14:52 | 51.88146 | 8.79134 | 31438 ft | 454 kts | 193° |
| 2026-05-01 14:52 | 51.85081 | 8.77948 | 30789 ft | 453 kts | 193° |
| 2026-05-01 14:52 | 51.78981 | 8.75592 | 29346 ft | 450 kts | 193° |
| 2026-05-01 14:53 | 51.75943 | 8.74421 | 28598 ft | 448 kts | 192° |
| 2026-05-01 14:53 | 51.72911 | 8.73254 | 27878 ft | 446 kts | 193° |
| 2026-05-01 14:53 | 51.69904 | 8.72098 | 27239 ft | 443 kts | 192° |
| 2026-05-01 14:53 | 51.66934 | 8.70958 | 26827 ft | 440 kts | 192° |
| 2026-05-01 14:54 | 51.63965 | 8.69793 | 26578 ft | 434 kts | 194° |
| 2026-05-01 14:54 | 51.61125 | 8.68261 | 26395 ft | 427 kts | 200° |
| 2026-05-01 14:54 | 51.58433 | 8.66333 | 26166 ft | 422 kts | 206° |
| 2026-05-01 14:54 | 51.55885 | 8.64063 | 25857 ft | 419 kts | 208° |
| 2026-05-01 14:55 | 51.53342 | 8.61749 | 25459 ft | 418 kts | 208° |
| 2026-05-01 14:55 | 51.50812 | 8.59451 | 25079 ft | 417 kts | 208° |
| 2026-05-01 14:55 | 51.48293 | 8.57179 | 24729 ft | 415 kts | 208° |
| 2026-05-01 14:55 | 51.45777 | 8.54925 | 24454 ft | 412 kts | 208° |
| 2026-05-01 14:56 | 51.43281 | 8.52700 | 24135 ft | 410 kts | 208° |
| 2026-05-01 14:56 | 51.40798 | 8.50491 | 23776 ft | 408 kts | 207° |
| 2026-05-01 14:56 | 51.38320 | 8.48289 | 23421 ft | 406 kts | 207° |
| 2026-05-01 14:56 | 51.35858 | 8.46104 | 23057 ft | 403 kts | 207° |
| 2026-05-01 14:57 | 51.33419 | 8.43944 | 22742 ft | 401 kts | 207° |
| 2026-05-01 14:57 | 51.28707 | 8.39297 | 22041 ft | 397 kts | 219° |
| 2026-05-01 14:57 | 51.26776 | 8.36170 | 21833 ft | 394 kts | 229° |
| 2026-05-01 14:58 | 51.25239 | 8.32596 | 21728 ft | 386 kts | 238° |
| 2026-05-01 14:58 | 51.24024 | 8.28845 | 21566 ft | 369 kts | 244° |
| 2026-05-01 14:58 | 51.23129 | 8.25050 | 21429 ft | 362 kts | 251° |
| 2026-05-01 14:58 | 51.22428 | 8.21295 | 21275 ft | 354 kts | 252° |
| 2026-05-01 14:59 | 51.21745 | 8.17527 | 20961 ft | 353 kts | 252° |
| 2026-05-01 14:59 | 51.21068 | 8.13777 | 20646 ft | 353 kts | 252° |
| 2026-05-01 14:59 | 51.20380 | 8.09995 | 20053 ft | 354 kts | 252° |
| 2026-05-01 14:59 | 51.19702 | 8.06294 | 19426 ft | 341 kts | 251° |
| 2026-05-01 15:00 | 51.18386 | 7.99186 | 18227 ft | 331 kts | 251° |
| 2026-05-01 15:00 | 51.17732 | 7.95677 | 17566 ft | 329 kts | 251° |
| 2026-05-01 15:00 | 51.17082 | 7.92198 | 16908 ft | 328 kts | 250° |
| 2026-05-01 15:01 | 51.16429 | 7.88720 | 16291 ft | 326 kts | 251° |
| 2026-05-01 15:01 | 51.15785 | 7.85294 | 15674 ft | 326 kts | 250° |
| 2026-05-01 15:01 | 51.15134 | 7.81846 | 15067 ft | 320 kts | 250° |
| 2026-05-01 15:01 | 51.14499 | 7.78471 | 14470 ft | 315 kts | 250° |
| 2026-05-01 15:02 | 51.13867 | 7.75130 | 13925 ft | 318 kts | 250° |
| 2026-05-01 15:02 | 51.13446 | 7.72909 | 13541 ft | 320 kts | 250° |
| 2026-05-01 15:02 | 51.12573 | 7.68318 | 12764 ft | 325 kts | 250° |
| 2026-05-01 15:02 | 51.11915 | 7.64864 | 12183 ft | 325 kts | 250° |
| 2026-05-01 15:03 | 51.11269 | 7.61467 | 11595 ft | 316 kts | 250° |
| 2026-05-01 15:03 | 51.10639 | 7.58157 | 11027 ft | 309 kts | 250° |
| 2026-05-01 15:03 | 51.10022 | 7.54918 | 10461 ft | 304 kts | 250° |
| 2026-05-01 15:03 | 51.09400 | 7.51680 | 9847 ft | 309 kts | 250° |
| 2026-05-01 15:04 | 51.08786 | 7.48475 | 9188 ft | 296 kts | 250° |
| 2026-05-01 15:04 | 51.08199 | 7.45409 | 8525 ft | 284 kts | 249° |
| 2026-05-01 15:04 | 51.07635 | 7.42464 | 7927 ft | 274 kts | 249° |
| 2026-05-01 15:04 | 51.07097 | 7.39620 | 7473 ft | 263 kts | 253° |
| 2026-05-01 15:05 | 51.06909 | 7.36712 | 7329 ft | 267 kts | 265° |
| 2026-05-01 15:05 | 51.06931 | 7.33784 | 7275 ft | 262 kts | 268° |
| 2026-05-01 15:05 | 51.06988 | 7.30930 | 7285 ft | 258 kts | 268° |
| 2026-05-01 15:05 | 51.07049 | 7.28069 | 7292 ft | 260 kts | 268° |
| 2026-05-01 15:06 | 51.07112 | 7.25189 | 7291 ft | 260 kts | 268° |
| 2026-05-01 15:06 | 51.07166 | 7.22319 | 7197 ft | 261 kts | 268° |
| 2026-05-01 15:06 | 51.07216 | 7.19426 | 6753 ft | 263 kts | 268° |
| 2026-05-01 15:06 | 51.07276 | 7.16542 | 6159 ft | 257 kts | 268° |
| 2026-05-01 15:07 | 51.07340 | 7.13773 | 5618 ft | 244 kts | 268° |
| 2026-05-01 15:07 | 51.07403 | 7.11115 | 5039 ft | 239 kts | 267° |
| 2026-05-01 15:07 | 51.07231 | 7.08543 | 4316 ft | 230 kts | 247° |
| 2026-05-01 15:07 | 51.06644 | 7.06211 | 3703 ft | 225 kts | 243° |
| 2026-05-01 15:08 | 51.06060 | 7.03958 | 3335 ft | 214 kts | 242° |
| 2026-05-01 15:08 | 51.05475 | 7.01753 | 3173 ft | 219 kts | 243° |
| 2026-05-01 15:08 | 51.04899 | 6.99530 | 2992 ft | 210 kts | 243° |
| 2026-05-01 15:08 | 51.04368 | 6.97415 | 3002 ft | 206 kts | 243° |
| 2026-05-01 15:09 | 51.03834 | 6.95335 | 3019 ft | 207 kts | 243° |
| 2026-05-01 15:09 | 51.03318 | 6.93263 | 3012 ft | 193 kts | 243° |
| 2026-05-01 15:09 | 51.02823 | 6.91381 | 2986 ft | 180 kts | 234° |
| 2026-05-01 15:09 | 51.01930 | 6.90180 | 3005 ft | 167 kts | 193° |
| 2026-05-01 15:10 | 51.00834 | 6.90290 | 2987 ft | 157 kts | 152° |
| 2026-05-01 15:10 | 50.99843 | 6.93145 | 3013 ft | 155 kts | 112° |
| 2026-05-01 15:10 | 50.99475 | 6.94740 | 3007 ft | 154 kts | 114° |
| 2026-05-01 15:11 | 50.99053 | 6.96272 | 3004 ft | 148 kts | 128° |
| 2026-05-01 15:11 | 50.97734 | 6.98706 | 2842 ft | 146 kts | 133° |
| 2026-05-01 15:11 | 50.97028 | 6.99830 | 2639 ft | 135 kts | 137° |
| 2026-05-01 15:12 | 50.96341 | 7.00839 | 2451 ft | 135 kts | 138° |
| 2026-05-01 15:12 | 50.94884 | 7.02940 | 2074 ft | 140 kts | 140° |
| 2026-05-01 15:12 | 50.94179 | 7.03969 | 1881 ft | 143 kts | 137° |
| 2026-05-01 15:13 | 50.91986 | 7.07188 | 1271 ft | 142 kts | 135° |
| 2026-05-01 15:14 | 50.90617 | 7.09183 | 853 ft | 134 kts | 137° |
| 2026-05-01 15:14 | 50.89951 | 7.10137 | 678 ft | 136 kts | 136° |
| 2026-05-01 15:14 | 50.88535 | 7.12198 | 393 ft | 138 kts | 135° |
| 2026-05-01 15:15 | 50.87246 | 7.14073 | 273 ft | 102 kts | 137° |
| 2026-05-01 15:15 | 50.86686 | 7.14879 | 278 ft | 30 kts | 138° |
| 2026-05-01 15:16 | 50.86430 | 7.15225 | 283 ft | 18 kts | 150° |
| 2026-05-01 15:16 | 50.86268 | 7.15320 | 286 ft | 9 kts | 167° |
| 2026-05-01 15:17 | 50.86140 | 7.15358 | 285 ft | 10 kts | 175° |
| 2026-05-01 15:18 | 50.86062 | 7.15114 | 285 ft | 8 kts | 323° |
| 2026-05-01 15:18 | 50.86109 | 7.15047 | 284 ft | 10 kts | 316° |
| 2026-05-01 15:19 | 50.86315 | 7.14747 | 279 ft | 17 kts | 319° |
| 2026-05-01 15:19 | 50.86483 | 7.14502 | 272 ft | 10 kts | 318° |
| 2026-05-01 15:19 | 50.86541 | 7.14421 | 270 ft | 12 kts | 319° |
| 2026-05-01 15:20 | 50.86693 | 7.14222 | 268 ft | 16 kts | 322° |
| 2026-05-01 15:20 | 50.86779 | 7.14112 | 269 ft | 16 kts | 320° |
| 2026-05-01 15:20 | 50.86856 | 7.13984 | 268 ft | 17 kts | 275° |
| 2026-05-01 15:21 | 50.86800 | 7.13886 | 266 ft | 0 kts | 226° |